sensor_id;sensor_type;location;lat;lon;timestamp;P1;durP1;ratioP1;P2;durP2;ratioP2
58091;SDS011;43896;48.178;11.578;2023-04-01T00:00:41;0.88;;;0.20;;
58091;SDS011;43896;48.178;11.578;2023-04-01T00:03:07;1.50;;;0.25;;
58091;SDS011;43896;48.178;11.578;2023-04-01T00:05:33;0.90;;;0.38;;
58091;SDS011;43896;48.178;11.578;2023-04-01T00:07:58;1.80;;;0.22;;
58091;SDS011;43896;48.178;11.578;2023-04-01T00:10:23;0.63;;;0.20;;
58091;SDS011;43896;48.178;11.578;2023-04-01T00:12:49;1.13;;;0.20;;
58091;SDS011;43896;48.178;11.578;2023-04-01T00:15:14;1.27;;;0.20;;
58091;SDS011;43896;48.178;11.578;2023-04-01T00:17:40;1.85;;;0.20;;
58091;SDS011;43896;48.178;11.578;2023-04-01T00:20:06;2.33;;;0.30;;
58091;SDS011;43896;48.178;11.578;2023-04-01T00:22:32;0.93;;;0.10;;
58091;SDS011;43896;48.178;11.578;2023-04-01T00:24:59;1.63;;;0.28;;
58091;SDS011;43896;48.178;11.578;2023-04-01T00:27:24;1.50;;;0.30;;
58091;SDS011;43896;48.178;11.578;2023-04-01T00:29:50;1.85;;;0.30;;
58091;SDS011;43896;48.178;11.578;2023-04-01T00:32:15;1.02;;;0.20;;
58091;SDS011;43896;48.178;11.578;2023-04-01T00:34:41;1.08;;;0.30;;
58091;SDS011;43896;48.178;11.578;2023-04-01T00:37:06;1.20;;;0.20;;
58091;SDS011;43896;48.178;11.578;2023-04-01T00:39:33;1.30;;;0.22;;
58091;SDS011;43896;48.178;11.578;2023-04-01T00:41:59;2.83;;;0.30;;
58091;SDS011;43896;48.178;11.578;2023-04-01T00:44:27;0.73;;;0.20;;
58091;SDS011;43896;48.178;11.578;2023-04-01T00:46:58;1.70;;;0.30;;
58091;SDS011;43896;48.178;11.578;2023-04-01T00:49:31;2.47;;;0.22;;
58091;SDS011;43896;48.178;11.578;2023-04-01T00:52:00;1.65;;;0.30;;
58091;SDS011;43896;48.178;11.578;2023-04-01T00:54:28;1.02;;;0.30;;
58091;SDS011;43896;48.178;11.578;2023-04-01T00:56:57;1.48;;;0.30;;
58091;SDS011;43896;48.178;11.578;2023-04-01T00:59:33;1.42;;;0.25;;
58091;SDS011;43896;48.178;11.578;2023-04-01T01:02:02;1.85;;;0.60;;
58091;SDS011;43896;48.178;11.578;2023-04-01T01:04:29;1.40;;;0.40;;
58091;SDS011;43896;48.178;11.578;2023-04-01T01:07:03;2.53;;;0.30;;
58091;SDS011;43896;48.178;11.578;2023-04-01T01:09:55;2.67;;;0.38;;
58091;SDS011;43896;48.178;11.578;2023-04-01T01:13:32;0.98;;;0.20;;
58091;SDS011;43896;48.178;11.578;2023-04-01T01:16:00;0.95;;;0.20;;
58091;SDS011;43896;48.178;11.578;2023-04-01T01:19:42;1.35;;;0.30;;
58091;SDS011;43896;48.178;11.578;2023-04-01T01:21:42;3.00;;;0.40;;
58091;SDS011;43896;48.178;11.578;2023-04-01T01:37:42;1.80;;;0.40;;
58091;SDS011;43896;48.178;11.578;2023-04-01T01:40:10;1.40;;;0.50;;
58091;SDS011;43896;48.178;11.578;2023-04-01T01:42:39;2.75;;;0.30;;
58091;SDS011;43896;48.178;11.578;2023-04-01T01:45:08;2.08;;;0.60;;
58091;SDS011;43896;48.178;11.578;2023-04-01T01:47:37;2.42;;;0.40;;
58091;SDS011;43896;48.178;11.578;2023-04-01T01:50:03;2.45;;;0.20;;
58091;SDS011;43896;48.178;11.578;2023-04-01T01:52:30;2.88;;;0.40;;
58091;SDS011;43896;48.178;11.578;2023-04-01T01:54:56;1.55;;;0.32;;
58091;SDS011;43896;48.178;11.578;2023-04-01T01:57:24;1.55;;;0.22;;
58091;SDS011;43896;48.178;11.578;2023-04-01T01:59:55;1.75;;;0.30;;
58091;SDS011;43896;48.178;11.578;2023-04-01T02:04:50;1.63;;;0.30;;
58091;SDS011;43896;48.178;11.578;2023-04-01T02:07:21;1.77;;;0.20;;
58091;SDS011;43896;48.178;11.578;2023-04-01T02:09:52;1.05;;;0.20;;
58091;SDS011;43896;48.178;11.578;2023-04-01T02:12:18;1.23;;;0.20;;
58091;SDS011;43896;48.178;11.578;2023-04-01T02:14:53;0.57;;;0.20;;
58091;SDS011;43896;48.178;11.578;2023-04-01T02:17:29;0.73;;;0.20;;
58091;SDS011;43896;48.178;11.578;2023-04-01T02:19:57;1.17;;;0.10;;
58091;SDS011;43896;48.178;11.578;2023-04-01T02:22:27;2.10;;;0.20;;
58091;SDS011;43896;48.178;11.578;2023-04-01T02:24:56;0.98;;;0.10;;
58091;SDS011;43896;48.178;11.578;2023-04-01T02:27:24;1.00;;;0.20;;
58091;SDS011;43896;48.178;11.578;2023-04-01T02:29:50;0.73;;;0.17;;
58091;SDS011;43896;48.178;11.578;2023-04-01T02:32:17;2.25;;;0.20;;
58091;SDS011;43896;48.178;11.578;2023-04-01T02:34:44;1.80;;;0.20;;
58091;SDS011;43896;48.178;11.578;2023-04-01T02:37:10;1.45;;;0.20;;
58091;SDS011;43896;48.178;11.578;2023-04-01T02:39:36;0.43;;;0.20;;
58091;SDS011;43896;48.178;11.578;2023-04-01T02:42:02;0.55;;;0.20;;
58091;SDS011;43896;48.178;11.578;2023-04-01T02:44:27;0.95;;;0.22;;
58091;SDS011;43896;48.178;11.578;2023-04-01T02:46:52;1.30;;;0.20;;
58091;SDS011;43896;48.178;11.578;2023-04-01T02:49:18;0.47;;;0.13;;
58091;SDS011;43896;48.178;11.578;2023-04-01T02:51:43;1.98;;;0.20;;
58091;SDS011;43896;48.178;11.578;2023-04-01T02:54:09;0.82;;;0.10;;
58091;SDS011;43896;48.178;11.578;2023-04-01T02:56:34;1.25;;;0.20;;
58091;SDS011;43896;48.178;11.578;2023-04-01T02:59:00;0.20;;;0.10;;
58091;SDS011;43896;48.178;11.578;2023-04-01T03:01:25;1.27;;;0.40;;
58091;SDS011;43896;48.178;11.578;2023-04-01T03:03:51;1.23;;;0.20;;
58091;SDS011;43896;48.178;11.578;2023-04-01T03:06:16;0.63;;;0.10;;
58091;SDS011;43896;48.178;11.578;2023-04-01T03:08:43;0.98;;;0.10;;
58091;SDS011;43896;48.178;11.578;2023-04-01T03:11:09;0.98;;;0.10;;
58091;SDS011;43896;48.178;11.578;2023-04-01T03:13:35;0.75;;;0.20;;
58091;SDS011;43896;48.178;11.578;2023-04-01T03:16:01;0.43;;;0.10;;
58091;SDS011;43896;48.178;11.578;2023-04-01T03:18:26;2.28;;;0.28;;
58091;SDS011;43896;48.178;11.578;2023-04-01T03:20:52;1.15;;;0.13;;
58091;SDS011;43896;48.178;11.578;2023-04-01T03:23:17;0.28;;;0.10;;
58091;SDS011;43896;48.178;11.578;2023-04-01T03:25:44;0.98;;;0.17;;
58091;SDS011;43896;48.178;11.578;2023-04-01T03:28:10;0.15;;;0.10;;
58091;SDS011;43896;48.178;11.578;2023-04-01T03:30:35;0.95;;;0.10;;
58091;SDS011;43896;48.178;11.578;2023-04-01T03:33:01;0.32;;;0.00;;
58091;SDS011;43896;48.178;11.578;2023-04-01T03:35:26;0.40;;;0.10;;
58091;SDS011;43896;48.178;11.578;2023-04-01T03:37:52;0.10;;;0.10;;
58091;SDS011;43896;48.178;11.578;2023-04-01T03:40:18;0.75;;;0.10;;
58091;SDS011;43896;48.178;11.578;2023-04-01T03:42:44;1.45;;;0.10;;
58091;SDS011;43896;48.178;11.578;2023-04-01T03:45:10;0.32;;;0.10;;
58091;SDS011;43896;48.178;11.578;2023-04-01T03:47:36;0.43;;;0.10;;
58091;SDS011;43896;48.178;11.578;2023-04-01T03:50:02;0.47;;;0.10;;
58091;SDS011;43896;48.178;11.578;2023-04-01T03:52:28;0.25;;;0.10;;
58091;SDS011;43896;48.178;11.578;2023-04-01T03:54:54;0.52;;;0.10;;
58091;SDS011;43896;48.178;11.578;2023-04-01T03:57:19;1.10;;;0.10;;
58091;SDS011;43896;48.178;11.578;2023-04-01T03:59:45;1.08;;;0.20;;
58091;SDS011;43896;48.178;11.578;2023-04-01T04:02:10;1.48;;;0.20;;
58091;SDS011;43896;48.178;11.578;2023-04-01T04:04:35;0.82;;;0.10;;
58091;SDS011;43896;48.178;11.578;2023-04-01T04:07:00;0.40;;;0.10;;
58091;SDS011;43896;48.178;11.578;2023-04-01T04:09:26;0.65;;;0.20;;
58091;SDS011;43896;48.178;11.578;2023-04-01T04:11:51;0.38;;;0.10;;
58091;SDS011;43896;48.178;11.578;2023-04-01T04:14:17;1.75;;;0.20;;
58091;SDS011;43896;48.178;11.578;2023-04-01T04:16:42;0.75;;;0.10;;
58091;SDS011;43896;48.178;11.578;2023-04-01T04:19:07;0.95;;;0.20;;
58091;SDS011;43896;48.178;11.578;2023-04-01T04:21:33;1.25;;;0.17;;
58091;SDS011;43896;48.178;11.578;2023-04-01T04:24:02;0.43;;;0.10;;
58091;SDS011;43896;48.178;11.578;2023-04-01T04:26:27;0.63;;;0.10;;
58091;SDS011;43896;48.178;11.578;2023-04-01T04:28:53;1.42;;;0.20;;
58091;SDS011;43896;48.178;11.578;2023-04-01T04:31:20;0.68;;;0.17;;
58091;SDS011;43896;48.178;11.578;2023-04-01T04:33:46;0.82;;;0.20;;
58091;SDS011;43896;48.178;11.578;2023-04-01T04:36:12;0.60;;;0.20;;
58091;SDS011;43896;48.178;11.578;2023-04-01T04:38:37;1.65;;;0.30;;
58091;SDS011;43896;48.178;11.578;2023-04-01T04:41:03;1.42;;;0.30;;
58091;SDS011;43896;48.178;11.578;2023-04-01T04:43:33;0.40;;;0.10;;
58091;SDS011;43896;48.178;11.578;2023-04-01T04:45:59;1.63;;;0.30;;
58091;SDS011;43896;48.178;11.578;2023-04-01T04:48:24;1.27;;;0.20;;
58091;SDS011;43896;48.178;11.578;2023-04-01T04:50:50;0.47;;;0.20;;
58091;SDS011;43896;48.178;11.578;2023-04-01T04:53:16;2.05;;;0.28;;
58091;SDS011;43896;48.178;11.578;2023-04-01T04:55:44;1.58;;;0.20;;
58091;SDS011;43896;48.178;11.578;2023-04-01T04:58:10;1.17;;;0.30;;
58091;SDS011;43896;48.178;11.578;2023-04-01T05:00:36;2.13;;;0.30;;
58091;SDS011;43896;48.178;11.578;2023-04-01T05:03:04;0.38;;;0.17;;
58091;SDS011;43896;48.178;11.578;2023-04-01T05:05:38;0.63;;;0.10;;
58091;SDS011;43896;48.178;11.578;2023-04-01T05:08:04;1.90;;;0.20;;
58091;SDS011;43896;48.178;11.578;2023-04-01T05:10:30;2.05;;;0.40;;
58091;SDS011;43896;48.178;11.578;2023-04-01T05:12:56;1.30;;;0.20;;
58091;SDS011;43896;48.178;11.578;2023-04-01T05:15:22;1.90;;;0.20;;
58091;SDS011;43896;48.178;11.578;2023-04-01T05:17:48;1.25;;;0.38;;
58091;SDS011;43896;48.178;11.578;2023-04-01T05:20:14;2.15;;;0.20;;
58091;SDS011;43896;48.178;11.578;2023-04-01T05:22:40;1.48;;;0.20;;
58091;SDS011;43896;48.178;11.578;2023-04-01T05:25:06;1.10;;;0.20;;
58091;SDS011;43896;48.178;11.578;2023-04-01T05:27:31;2.65;;;0.20;;
58091;SDS011;43896;48.178;11.578;2023-04-01T05:29:57;1.20;;;0.20;;
58091;SDS011;43896;48.178;11.578;2023-04-01T05:32:23;0.90;;;0.20;;
58091;SDS011;43896;48.178;11.578;2023-04-01T05:34:52;1.98;;;0.20;;
58091;SDS011;43896;48.178;11.578;2023-04-01T05:37:20;1.52;;;0.57;;
58091;SDS011;43896;48.178;11.578;2023-04-01T05:39:47;0.75;;;0.10;;
58091;SDS011;43896;48.178;11.578;2023-04-01T05:42:13;0.93;;;0.30;;
58091;SDS011;43896;48.178;11.578;2023-04-01T05:44:38;1.60;;;0.30;;
58091;SDS011;43896;48.178;11.578;2023-04-01T05:47:04;0.98;;;0.20;;
58091;SDS011;43896;48.178;11.578;2023-04-01T05:49:30;0.95;;;0.30;;
58091;SDS011;43896;48.178;11.578;2023-04-01T05:51:56;1.92;;;0.25;;
58091;SDS011;43896;48.178;11.578;2023-04-01T05:54:21;1.95;;;0.30;;
58091;SDS011;43896;48.178;11.578;2023-04-01T05:56:47;2.00;;;0.20;;
58091;SDS011;43896;48.178;11.578;2023-04-01T05:59:12;2.28;;;0.30;;
58091;SDS011;43896;48.178;11.578;2023-04-01T06:01:38;1.52;;;0.20;;
58091;SDS011;43896;48.178;11.578;2023-04-01T06:04:04;1.77;;;0.40;;
58091;SDS011;43896;48.178;11.578;2023-04-01T06:06:30;1.67;;;0.25;;
58091;SDS011;43896;48.178;11.578;2023-04-01T06:08:58;2.92;;;0.20;;
58091;SDS011;43896;48.178;11.578;2023-04-01T06:14:26;0.90;;;0.30;;
58091;SDS011;43896;48.178;11.578;2023-04-01T06:27:58;0.73;;;0.20;;
58091;SDS011;43896;48.178;11.578;2023-04-01T06:45:39;1.52;;;0.20;;
58091;SDS011;43896;48.178;11.578;2023-04-01T06:51:23;1.77;;;0.22;;
58091;SDS011;43896;48.178;11.578;2023-04-01T06:54:03;2.63;;;0.30;;
58091;SDS011;43896;48.178;11.578;2023-04-01T06:56:36;1.13;;;0.22;;
58091;SDS011;43896;48.178;11.578;2023-04-01T07:01:46;2.67;;;0.35;;
58091;SDS011;43896;48.178;11.578;2023-04-01T07:04:20;2.03;;;0.30;;
58091;SDS011;43896;48.178;11.578;2023-04-01T07:06:50;1.95;;;0.43;;
58091;SDS011;43896;48.178;11.578;2023-04-01T07:09:20;1.60;;;0.25;;
58091;SDS011;43896;48.178;11.578;2023-04-01T07:11:51;4.90;;;0.40;;
58091;SDS011;43896;48.178;11.578;2023-04-01T07:14:27;1.35;;;0.30;;
58091;SDS011;43896;48.178;11.578;2023-04-01T07:17:03;1.65;;;0.30;;
58091;SDS011;43896;48.178;11.578;2023-04-01T07:19:41;1.00;;;0.30;;
58091;SDS011;43896;48.178;11.578;2023-04-01T07:24:46;1.73;;;0.30;;
58091;SDS011;43896;48.178;11.578;2023-04-01T07:27:13;1.23;;;0.20;;
58091;SDS011;43896;48.178;11.578;2023-04-01T07:29:39;1.83;;;0.28;;
58091;SDS011;43896;48.178;11.578;2023-04-01T07:34:57;1.45;;;0.30;;
58091;SDS011;43896;48.178;11.578;2023-04-01T07:37:43;1.55;;;0.30;;
58091;SDS011;43896;48.178;11.578;2023-04-01T07:46:26;1.75;;;0.40;;
58091;SDS011;43896;48.178;11.578;2023-04-01T07:49:06;1.65;;;0.40;;
58091;SDS011;43896;48.178;11.578;2023-04-01T07:51:44;2.10;;;0.20;;
58091;SDS011;43896;48.178;11.578;2023-04-01T07:54:22;0.95;;;0.17;;
58091;SDS011;43896;48.178;11.578;2023-04-01T08:05:25;0.95;;;0.20;;
58091;SDS011;43896;48.178;11.578;2023-04-01T08:16:05;0.68;;;0.20;;
58091;SDS011;43896;48.178;11.578;2023-04-01T08:21:47;2.22;;;0.30;;
58091;SDS011;43896;48.178;11.578;2023-04-01T08:26:51;1.13;;;0.20;;
58091;SDS011;43896;48.178;11.578;2023-04-01T08:29:22;2.22;;;0.20;;
58091;SDS011;43896;48.178;11.578;2023-04-01T08:32:00;0.75;;;0.10;;
58091;SDS011;43896;48.178;11.578;2023-04-01T08:34:37;1.40;;;0.17;;
58091;SDS011;43896;48.178;11.578;2023-04-01T08:37:25;1.17;;;0.20;;
58091;SDS011;43896;48.178;11.578;2023-04-01T08:39:58;1.17;;;0.35;;
58091;SDS011;43896;48.178;11.578;2023-04-01T08:42:31;0.52;;;0.20;;
58091;SDS011;43896;48.178;11.578;2023-04-01T08:48:04;1.00;;;0.20;;
58091;SDS011;43896;48.178;11.578;2023-04-01T08:53:34;1.23;;;0.20;;
58091;SDS011;43896;48.178;11.578;2023-04-01T09:04:33;0.95;;;0.20;;
58091;SDS011;43896;48.178;11.578;2023-04-01T09:20:45;0.82;;;0.10;;
58091;SDS011;43896;48.178;11.578;2023-04-01T09:45:11;0.50;;;0.10;;
58091;SDS011;43896;48.178;11.578;2023-04-01T09:59:32;0.50;;;0.20;;
58091;SDS011;43896;48.178;11.578;2023-04-01T10:02:03;1.48;;;0.10;;
58091;SDS011;43896;48.178;11.578;2023-04-01T10:05:18;0.15;;;0.10;;
58091;SDS011;43896;48.178;11.578;2023-04-01T10:16:02;0.28;;;0.15;;
58091;SDS011;43896;48.178;11.578;2023-04-01T10:21:42;0.75;;;0.20;;
58091;SDS011;43896;48.178;11.578;2023-04-01T10:27:06;0.45;;;0.20;;
58091;SDS011;43896;48.178;11.578;2023-04-01T10:29:45;1.02;;;0.30;;
58091;SDS011;43896;48.178;11.578;2023-04-01T10:52:11;0.73;;;0.10;;
58091;SDS011;43896;48.178;11.578;2023-04-01T10:54:46;1.77;;;0.20;;
58091;SDS011;43896;48.178;11.578;2023-04-01T11:00:11;0.70;;;0.20;;
58091;SDS011;43896;48.178;11.578;2023-04-01T11:30:20;0.15;;;0.10;;
58091;SDS011;43896;48.178;11.578;2023-04-01T11:32:57;1.15;;;0.20;;
58091;SDS011;43896;48.178;11.578;2023-04-01T11:41:15;0.88;;;0.10;;
58091;SDS011;43896;48.178;11.578;2023-04-01T11:46:17;0.10;;;0.10;;
58091;SDS011;43896;48.178;11.578;2023-04-01T11:57:06;0.28;;;0.00;;
58091;SDS011;43896;48.178;11.578;2023-04-01T12:03:02;0.22;;;0.10;;
58091;SDS011;43896;48.178;11.578;2023-04-01T12:08:31;0.40;;;0.10;;
58091;SDS011;43896;48.178;11.578;2023-04-01T12:11:20;1.45;;;0.30;;
58091;SDS011;43896;48.178;11.578;2023-04-01T12:14:00;0.20;;;0.10;;
58091;SDS011;43896;48.178;11.578;2023-04-01T12:19:05;0.55;;;0.10;;
58091;SDS011;43896;48.178;11.578;2023-04-01T12:21:52;0.45;;;0.10;;
58091;SDS011;43896;48.178;11.578;2023-04-01T12:24:49;0.20;;;0.10;;
58091;SDS011;43896;48.178;11.578;2023-04-01T12:30:25;0.20;;;0.10;;
58091;SDS011;43896;48.178;11.578;2023-04-01T12:38:42;0.35;;;0.10;;
58091;SDS011;43896;48.178;11.578;2023-04-01T12:44:23;0.50;;;0.10;;
58091;SDS011;43896;48.178;11.578;2023-04-01T12:49:56;0.45;;;0.10;;
58091;SDS011;43896;48.178;11.578;2023-04-01T12:52:49;0.40;;;0.20;;
58091;SDS011;43896;48.178;11.578;2023-04-01T12:55:23;0.10;;;0.10;;
58091;SDS011;43896;48.178;11.578;2023-04-01T13:00:55;0.30;;;0.10;;
58091;SDS011;43896;48.178;11.578;2023-04-01T13:06:23;1.33;;;0.20;;
58091;SDS011;43896;48.178;11.578;2023-04-01T13:22:16;0.88;;;0.25;;
58091;SDS011;43896;48.178;11.578;2023-04-01T13:27:44;0.45;;;0.10;;
58091;SDS011;43896;48.178;11.578;2023-04-01T13:44:20;1.38;;;0.30;;
58091;SDS011;43896;48.178;11.578;2023-04-01T13:53:06;1.80;;;0.38;;
58091;SDS011;43896;48.178;11.578;2023-04-01T14:23:15;1.10;;;0.20;;
58091;SDS011;43896;48.178;11.578;2023-04-01T14:38:23;0.30;;;0.20;;
58091;SDS011;43896;48.178;11.578;2023-04-01T14:55:10;0.20;;;0.10;;
58091;SDS011;43896;48.178;11.578;2023-04-01T14:57:57;1.17;;;0.30;;
58091;SDS011;43896;48.178;11.578;2023-04-01T15:00:24;1.10;;;0.28;;
58091;SDS011;43896;48.178;11.578;2023-04-01T15:03:01;0.75;;;0.20;;
58091;SDS011;43896;48.178;11.578;2023-04-01T15:05:56;0.73;;;0.30;;
58091;SDS011;43896;48.178;11.578;2023-04-01T15:08:57;0.93;;;0.20;;
58091;SDS011;43896;48.178;11.578;2023-04-01T15:18:12;0.38;;;0.13;;
58091;SDS011;43896;48.178;11.578;2023-04-01T15:46:15;0.47;;;0.10;;
58091;SDS011;43896;48.178;11.578;2023-04-01T15:49:06;0.40;;;0.20;;
58091;SDS011;43896;48.178;11.578;2023-04-01T15:57:15;0.75;;;0.25;;
58091;SDS011;43896;48.178;11.578;2023-04-01T15:59:53;0.52;;;0.20;;
58091;SDS011;43896;48.178;11.578;2023-04-01T16:08:15;0.90;;;0.20;;
58091;SDS011;43896;48.178;11.578;2023-04-01T16:17:08;0.90;;;0.20;;
58091;SDS011;43896;48.178;11.578;2023-04-01T16:23:00;0.77;;;0.20;;
58091;SDS011;43896;48.178;11.578;2023-04-01T16:33:44;0.95;;;0.22;;
58091;SDS011;43896;48.178;11.578;2023-04-01T16:41:49;0.80;;;0.30;;
58091;SDS011;43896;48.178;11.578;2023-04-01T16:44:21;0.68;;;0.20;;
58091;SDS011;43896;48.178;11.578;2023-04-01T16:46:50;1.50;;;0.20;;
58091;SDS011;43896;48.178;11.578;2023-04-01T16:49:27;1.65;;;0.20;;
58091;SDS011;43896;48.178;11.578;2023-04-01T16:57:17;1.40;;;0.45;;
58091;SDS011;43896;48.178;11.578;2023-04-01T17:00:09;1.08;;;0.30;;
58091;SDS011;43896;48.178;11.578;2023-04-01T17:02:47;0.45;;;0.10;;
58091;SDS011;43896;48.178;11.578;2023-04-01T17:05:19;0.60;;;0.20;;
58091;SDS011;43896;48.178;11.578;2023-04-01T17:08:17;0.57;;;0.30;;
58091;SDS011;43896;48.178;11.578;2023-04-01T17:10:56;1.02;;;0.40;;
58091;SDS011;43896;48.178;11.578;2023-04-01T17:13:29;1.95;;;0.50;;
58091;SDS011;43896;48.178;11.578;2023-04-01T17:19:45;1.63;;;0.50;;
58091;SDS011;43896;48.178;11.578;2023-04-01T17:30:28;1.08;;;0.32;;
58091;SDS011;43896;48.178;11.578;2023-04-01T17:35:58;0.77;;;0.30;;
58091;SDS011;43896;48.178;11.578;2023-04-01T17:41:32;0.68;;;0.22;;
58091;SDS011;43896;48.178;11.578;2023-04-01T17:49:42;0.70;;;0.28;;
58091;SDS011;43896;48.178;11.578;2023-04-01T17:52:29;0.45;;;0.20;;
58091;SDS011;43896;48.178;11.578;2023-04-01T17:55:19;1.17;;;0.30;;
58091;SDS011;43896;48.178;11.578;2023-04-01T18:01:08;0.77;;;0.30;;
58091;SDS011;43896;48.178;11.578;2023-04-01T18:06:51;1.25;;;0.32;;
58091;SDS011;43896;48.178;11.578;2023-04-01T18:12:00;0.82;;;0.40;;
58091;SDS011;43896;48.178;11.578;2023-04-01T18:17:44;1.10;;;0.30;;
58091;SDS011;43896;48.178;11.578;2023-04-01T18:25:40;0.52;;;0.30;;
58091;SDS011;43896;48.178;11.578;2023-04-01T18:30:52;1.05;;;0.30;;
58091;SDS011;43896;48.178;11.578;2023-04-01T18:33:29;0.68;;;0.40;;
58091;SDS011;43896;48.178;11.578;2023-04-01T18:36:08;1.05;;;0.40;;
58091;SDS011;43896;48.178;11.578;2023-04-01T18:38:41;1.13;;;0.40;;
58091;SDS011;43896;48.178;11.578;2023-04-01T18:41:35;1.25;;;0.40;;
58091;SDS011;43896;48.178;11.578;2023-04-01T18:52:56;1.50;;;0.40;;
58091;SDS011;43896;48.178;11.578;2023-04-01T18:55:35;0.52;;;0.30;;
58091;SDS011;43896;48.178;11.578;2023-04-01T19:00:39;1.52;;;0.40;;
58091;SDS011;43896;48.178;11.578;2023-04-01T19:03:20;1.63;;;0.40;;
58091;SDS011;43896;48.178;11.578;2023-04-01T19:05:51;0.68;;;0.20;;
58091;SDS011;43896;48.178;11.578;2023-04-01T19:08:24;1.00;;;0.30;;
58091;SDS011;43896;48.178;11.578;2023-04-01T19:16:25;0.85;;;0.30;;
58091;SDS011;43896;48.178;11.578;2023-04-01T19:19:13;0.63;;;0.30;;
58091;SDS011;43896;48.178;11.578;2023-04-01T19:27:14;1.17;;;0.38;;
58091;SDS011;43896;48.178;11.578;2023-04-01T19:30:08;0.82;;;0.40;;
58091;SDS011;43896;48.178;11.578;2023-04-01T19:46:30;0.80;;;0.43;;
58091;SDS011;43896;48.178;11.578;2023-04-01T19:57:40;0.98;;;0.50;;
58091;SDS011;43896;48.178;11.578;2023-04-01T20:00:15;1.23;;;0.50;;
58091;SDS011;43896;48.178;11.578;2023-04-01T20:02:53;1.42;;;0.55;;
58091;SDS011;43896;48.178;11.578;2023-04-01T20:19:38;1.48;;;0.50;;
58091;SDS011;43896;48.178;11.578;2023-04-01T20:22:16;1.48;;;0.40;;
58091;SDS011;43896;48.178;11.578;2023-04-01T20:24:50;1.25;;;0.50;;
58091;SDS011;43896;48.178;11.578;2023-04-01T20:27:18;1.17;;;0.40;;
58091;SDS011;43896;48.178;11.578;2023-04-01T20:30:04;1.38;;;0.43;;
58091;SDS011;43896;48.178;11.578;2023-04-01T20:36:23;1.48;;;0.50;;
58091;SDS011;43896;48.178;11.578;2023-04-01T20:44:56;2.35;;;0.50;;
58091;SDS011;43896;48.178;11.578;2023-04-01T20:50:37;1.65;;;0.50;;
58091;SDS011;43896;48.178;11.578;2023-04-01T20:53:16;1.83;;;0.40;;
58091;SDS011;43896;48.178;11.578;2023-04-01T20:59:22;2.28;;;0.50;;
58091;SDS011;43896;48.178;11.578;2023-04-01T21:12:21;2.42;;;0.40;;
58091;SDS011;43896;48.178;11.578;2023-04-01T21:31:46;1.38;;;0.40;;
58091;SDS011;43896;48.178;11.578;2023-04-01T21:34:41;1.38;;;0.30;;
58091;SDS011;43896;48.178;11.578;2023-04-01T21:37:20;0.60;;;0.40;;
58091;SDS011;43896;48.178;11.578;2023-04-01T21:45:27;1.17;;;0.47;;
58091;SDS011;43896;48.178;11.578;2023-04-01T21:48:04;1.52;;;0.50;;
58091;SDS011;43896;48.178;11.578;2023-04-01T21:51:01;1.27;;;0.38;;
58091;SDS011;43896;48.178;11.578;2023-04-01T21:53:51;1.27;;;0.30;;
58091;SDS011;43896;48.178;11.578;2023-04-01T22:02:34;1.52;;;0.40;;
58091;SDS011;43896;48.178;11.578;2023-04-01T22:11:01;1.90;;;0.50;;
58091;SDS011;43896;48.178;11.578;2023-04-01T22:13:32;1.02;;;0.30;;
58091;SDS011;43896;48.178;11.578;2023-04-01T22:16:21;0.95;;;0.35;;
58091;SDS011;43896;48.178;11.578;2023-04-01T22:19:56;1.58;;;0.45;;
58091;SDS011;43896;48.178;11.578;2023-04-01T22:32:40;0.93;;;0.32;;
58091;SDS011;43896;48.178;11.578;2023-04-01T22:40:42;1.17;;;0.30;;
58091;SDS011;43896;48.178;11.578;2023-04-01T22:48:36;1.10;;;0.30;;
58091;SDS011;43896;48.178;11.578;2023-04-01T22:57:11;1.40;;;0.50;;
58091;SDS011;43896;48.178;11.578;2023-04-01T23:02:14;1.00;;;0.43;;
58091;SDS011;43896;48.178;11.578;2023-04-01T23:04:43;0.80;;;0.30;;
58091;SDS011;43896;48.178;11.578;2023-04-01T23:09:51;1.85;;;0.50;;
58091;SDS011;43896;48.178;11.578;2023-04-01T23:12:20;1.42;;;0.40;;
58091;SDS011;43896;48.178;11.578;2023-04-01T23:14:47;1.40;;;0.32;;
58091;SDS011;43896;48.178;11.578;2023-04-01T23:17:28;1.40;;;0.30;;
58091;SDS011;43896;48.178;11.578;2023-04-01T23:31:35;0.80;;;0.30;;
58091;SDS011;43896;48.178;11.578;2023-04-01T23:34:25;0.90;;;0.30;;
58091;SDS011;43896;48.178;11.578;2023-04-01T23:37:00;0.80;;;0.30;;
58091;SDS011;43896;48.178;11.578;2023-04-01T23:39:32;1.85;;;0.43;;
58091;SDS011;43896;48.178;11.578;2023-04-01T23:44:57;1.33;;;0.30;;
58091;SDS011;43896;48.178;11.578;2023-04-01T23:47:28;1.80;;;0.40;;
58091;SDS011;43896;48.178;11.578;2023-04-01T23:49:58;1.75;;;0.40;;
58091;SDS011;43896;48.178;11.578;2023-04-01T23:52:27;1.25;;;0.40;;
58091;SDS011;43896;48.178;11.578;2023-04-01T23:55:02;1.23;;;0.40;;
58091;SDS011;43896;48.178;11.578;2023-04-01T23:57:32;1.15;;;0.30;;
